ARG1830 SABE-SAVC
Flight info
| Callsign | ARG1830 |
|---|---|
| Flight time | 2h 10m |
| Altitude | 36000 |
| Route | PTA8 GBE UT694 IREMO UP664 GATUD GATUD2U |
| Aircraft | B738/M-MSDFGHILRVWS/LB1 |
Departure
| Time | 2026-04-25 17:49 |
|---|---|
| Airport | Aeroparque Jorge Newbery (SABE) |
Arrival
| Time | 2026-04-25 19:59 |
|---|---|
| Airport | General Enrique Mosconi International Airport (SAVC) |
| Time | Latitude | Longitude | Altitude | Speed | Heading |
|---|---|---|---|---|---|
| 2026-04-25 16:40 | -34.56079 | -58.40850 | 25 ft | 0 kts | 38° |
| 2026-04-25 17:40 | -34.56081 | -58.40852 | 24 ft | 2 kts | 38° |
| 2026-04-25 17:40 | -34.56094 | -58.40864 | 29 ft | 2 kts | 37° |
| 2026-04-25 17:40 | -34.56107 | -58.40876 | 29 ft | 2 kts | 36° |
| 2026-04-25 17:41 | -34.56121 | -58.40888 | 27 ft | 2 kts | 34° |
| 2026-04-25 17:41 | -34.56135 | -58.40898 | 29 ft | 2 kts | 28° |
| 2026-04-25 17:41 | -34.56150 | -58.40906 | 28 ft | 2 kts | 5° |
| 2026-04-25 17:41 | -34.56164 | -58.40901 | 30 ft | 1 kts | 302° |
| 2026-04-25 17:42 | -34.56166 | -58.40897 | 29 ft | 0 kts | 299° |
| 2026-04-25 17:44 | -34.56158 | -58.40913 | 28 ft | 5 kts | 299° |
| 2026-04-25 17:44 | -34.56129 | -58.40972 | 27 ft | 11 kts | 302° |
| 2026-04-25 17:44 | -34.56073 | -58.41063 | 24 ft | 16 kts | 308° |
| 2026-04-25 17:44 | -34.55998 | -58.41182 | 27 ft | 19 kts | 307° |
| 2026-04-25 17:45 | -34.55924 | -58.41306 | 26 ft | 18 kts | 301° |
| 2026-04-25 17:45 | -34.55885 | -58.41396 | 27 ft | 17 kts | 297° |
| 2026-04-25 17:45 | -34.55813 | -58.41565 | 26 ft | 17 kts | 296° |
| 2026-04-25 17:45 | -34.55763 | -58.41689 | 24 ft | 16 kts | 296° |
| 2026-04-25 17:46 | -34.55709 | -58.41804 | 26 ft | 15 kts | 304° |
| 2026-04-25 17:46 | -34.55649 | -58.41911 | 25 ft | 16 kts | 304° |
| 2026-04-25 17:46 | -34.55582 | -58.42031 | 26 ft | 19 kts | 304° |
| 2026-04-25 17:46 | -34.55505 | -58.42157 | 25 ft | 18 kts | 307° |
| 2026-04-25 17:47 | -34.55430 | -58.42277 | 25 ft | 18 kts | 307° |
| 2026-04-25 17:47 | -34.55372 | -58.42380 | 28 ft | 13 kts | 290° |
| 2026-04-25 17:47 | -34.55363 | -58.42480 | 24 ft | 9 kts | 248° |
| 2026-04-25 17:47 | -34.55392 | -58.42512 | 26 ft | 3 kts | 213° |
| 2026-04-25 17:48 | -34.55415 | -58.42490 | 26 ft | 6 kts | 126° |
| 2026-04-25 17:48 | -34.55568 | -58.42219 | 29 ft | 78 kts | 124° |
| 2026-04-25 17:48 | -34.56012 | -58.41421 | 28 ft | 147 kts | 124° |
| 2026-04-25 17:49 | -34.56678 | -58.40218 | 276 ft | 183 kts | 124° |
| 2026-04-25 17:49 | -34.57392 | -58.38940 | 1110 ft | 187 kts | 125° |
| 2026-04-25 17:49 | -34.57813 | -58.37433 | 1794 ft | 203 kts | 89° |
| 2026-04-25 17:49 | -34.57309 | -58.35743 | 2044 ft | 230 kts | 47° |
| 2026-04-25 17:50 | -34.55933 | -58.34701 | 2511 ft | 239 kts | 23° |
| 2026-04-25 17:50 | -34.54349 | -58.33664 | 2906 ft | 262 kts | 33° |
| 2026-04-25 17:50 | -34.53159 | -58.32045 | 3613 ft | 272 kts | 64° |
| 2026-04-25 17:50 | -34.52672 | -58.29837 | 4503 ft | 275 kts | 88° |
| 2026-04-25 17:51 | -34.52911 | -58.27538 | 5335 ft | 277 kts | 105° |
| 2026-04-25 17:51 | -34.53609 | -58.25368 | 6195 ft | 277 kts | 124° |
| 2026-04-25 17:51 | -34.54757 | -58.23497 | 7011 ft | 278 kts | 135° |
| 2026-04-25 17:51 | -34.56298 | -58.22085 | 7714 ft | 280 kts | 160° |
| 2026-04-25 17:52 | -34.58200 | -58.21705 | 8467 ft | 279 kts | 186° |
| 2026-04-25 17:52 | -34.59478 | -58.21881 | 8997 ft | 281 kts | 191° |
| 2026-04-25 17:52 | -34.62066 | -58.22416 | 9980 ft | 289 kts | 193° |
| 2026-04-25 17:52 | -34.64088 | -58.22870 | 10450 ft | 306 kts | 193° |
| 2026-04-25 17:53 | -34.66269 | -58.23362 | 10630 ft | 331 kts | 193° |
| 2026-04-25 17:53 | -34.68612 | -58.23882 | 10887 ft | 351 kts | 193° |
| 2026-04-25 17:53 | -34.71048 | -58.24411 | 11473 ft | 359 kts | 193° |
| 2026-04-25 17:53 | -34.73526 | -58.24938 | 12205 ft | 363 kts | 193° |
| 2026-04-25 17:54 | -34.76024 | -58.25466 | 12948 ft | 366 kts | 194° |
| 2026-04-25 17:54 | -34.78553 | -58.25998 | 13651 ft | 371 kts | 194° |
| 2026-04-25 17:54 | -34.81078 | -58.26529 | 14282 ft | 375 kts | 194° |
| 2026-04-25 17:54 | -34.83662 | -58.27072 | 14943 ft | 379 kts | 194° |
| 2026-04-25 17:55 | -34.86266 | -58.27619 | 15632 ft | 381 kts | 195° |
| 2026-04-25 17:55 | -34.88894 | -58.28171 | 16283 ft | 385 kts | 195° |
| 2026-04-25 17:55 | -34.91542 | -58.28729 | 16922 ft | 388 kts | 195° |
| 2026-04-25 17:55 | -34.94220 | -58.29293 | 17577 ft | 392 kts | 195° |
| 2026-04-25 17:56 | -34.96915 | -58.29861 | 18217 ft | 395 kts | 196° |
| 2026-04-25 17:56 | -34.99642 | -58.30437 | 18763 ft | 399 kts | 196° |
| 2026-04-25 17:56 | -35.02385 | -58.31015 | 19363 ft | 401 kts | 197° |
| 2026-04-25 17:56 | -35.05135 | -58.31595 | 19962 ft | 402 kts | 197° |
| 2026-04-25 17:57 | -35.07862 | -58.32170 | 20517 ft | 405 kts | 197° |
| 2026-04-25 17:57 | -35.10646 | -58.32759 | 21051 ft | 408 kts | 197° |
| 2026-04-25 17:57 | -35.13449 | -58.33353 | 21596 ft | 410 kts | 198° |
| 2026-04-25 17:57 | -35.15314 | -58.33748 | 21944 ft | 412 kts | 198° |
| 2026-04-25 17:58 | -35.19110 | -58.34553 | 22638 ft | 416 kts | 198° |
| 2026-04-25 17:58 | -35.21964 | -58.35158 | 23149 ft | 418 kts | 198° |
| 2026-04-25 17:58 | -35.24840 | -58.35769 | 23621 ft | 421 kts | 198° |
| 2026-04-25 17:58 | -35.27739 | -58.36385 | 24012 ft | 424 kts | 199° |
| 2026-04-25 17:59 | -35.30651 | -58.37003 | 24417 ft | 426 kts | 199° |
| 2026-04-25 17:59 | -35.33542 | -58.37618 | 24818 ft | 428 kts | 199° |
| 2026-04-25 17:59 | -35.36486 | -58.38244 | 25215 ft | 430 kts | 199° |
| 2026-04-25 17:59 | -35.39446 | -58.38874 | 25591 ft | 433 kts | 199° |
| 2026-04-25 18:00 | -35.42422 | -58.39509 | 25954 ft | 436 kts | 200° |
| 2026-04-25 18:00 | -35.45413 | -58.40147 | 26323 ft | 438 kts | 200° |
| 2026-04-25 18:00 | -35.48424 | -58.40789 | 26688 ft | 440 kts | 200° |
| 2026-04-25 18:00 | -35.51445 | -58.41434 | 27038 ft | 442 kts | 200° |
| 2026-04-25 18:01 | -35.54487 | -58.42084 | 27392 ft | 444 kts | 200° |
| 2026-04-25 18:01 | -35.57541 | -58.42737 | 27745 ft | 446 kts | 200° |
| 2026-04-25 18:01 | -35.60564 | -58.43384 | 28074 ft | 448 kts | 200° |
| 2026-04-25 18:01 | -35.63646 | -58.44044 | 28387 ft | 451 kts | 200° |
| 2026-04-25 18:02 | -35.66748 | -58.44709 | 28697 ft | 453 kts | 200° |
| 2026-04-25 18:02 | -35.69864 | -58.45377 | 29006 ft | 456 kts | 200° |
| 2026-04-25 18:02 | -35.72967 | -58.46113 | 29359 ft | 450 kts | 205° |
| 2026-04-25 18:02 | -35.75887 | -58.47308 | 29808 ft | 436 kts | 213° |
| 2026-04-25 18:03 | -35.78537 | -58.48981 | 30243 ft | 421 kts | 222° |
| 2026-04-25 18:03 | -35.80995 | -58.50901 | 30642 ft | 418 kts | 223° |
| 2026-04-25 18:03 | -35.83444 | -58.52821 | 31008 ft | 417 kts | 223° |
| 2026-04-25 18:03 | -35.85888 | -58.54732 | 31371 ft | 416 kts | 223° |
| 2026-04-25 18:04 | -35.88300 | -58.56608 | 31746 ft | 414 kts | 224° |
| 2026-04-25 18:04 | -35.90766 | -58.58517 | 32138 ft | 412 kts | 224° |
| 2026-04-25 18:04 | -35.93161 | -58.60367 | 32514 ft | 411 kts | 224° |
| 2026-04-25 18:04 | -35.95579 | -58.62233 | 32877 ft | 409 kts | 224° |
| 2026-04-25 18:05 | -35.97987 | -58.64092 | 33221 ft | 408 kts | 224° |
| 2026-04-25 18:05 | -36.00391 | -58.65948 | 33582 ft | 407 kts | 224° |
| 2026-04-25 18:05 | -36.02784 | -58.67796 | 33949 ft | 405 kts | 225° |
| 2026-04-25 18:05 | -36.05168 | -58.69639 | 34224 ft | 404 kts | 225° |
| 2026-04-25 18:06 | -36.07549 | -58.71482 | 34439 ft | 405 kts | 224° |
| 2026-04-25 18:06 | -36.09936 | -58.73334 | 34640 ft | 405 kts | 224° |
| 2026-04-25 18:06 | -36.12293 | -58.75162 | 34872 ft | 405 kts | 224° |
| 2026-04-25 18:06 | -36.14679 | -58.77012 | 35111 ft | 405 kts | 224° |
| 2026-04-25 18:07 | -36.17067 | -58.78866 | 35309 ft | 405 kts | 224° |
| 2026-04-25 18:07 | -36.19452 | -58.80718 | 35516 ft | 405 kts | 224° |
| 2026-04-25 18:07 | -36.21843 | -58.82576 | 35739 ft | 405 kts | 224° |
| 2026-04-25 18:07 | -36.24229 | -58.84431 | 35954 ft | 405 kts | 224° |
| 2026-04-25 18:08 | -36.26624 | -58.86297 | 35972 ft | 409 kts | 223° |
| 2026-04-25 18:08 | -36.31437 | -58.90048 | 35987 ft | 407 kts | 223° |
| 2026-04-25 18:09 | -36.36180 | -58.93742 | 35991 ft | 404 kts | 223° |
| 2026-04-25 18:09 | -36.40919 | -58.97444 | 35992 ft | 402 kts | 223° |
| 2026-04-25 18:10 | -36.45642 | -59.01140 | 35997 ft | 401 kts | 223° |
| 2026-04-25 18:10 | -36.50355 | -59.04837 | 35999 ft | 401 kts | 223° |
| 2026-04-25 18:11 | -36.55048 | -59.08522 | 36000 ft | 402 kts | 223° |
| 2026-04-25 18:11 | -36.59792 | -59.12254 | 36000 ft | 405 kts | 223° |
| 2026-04-25 18:12 | -36.64567 | -59.16013 | 36000 ft | 407 kts | 223° |
| 2026-04-25 18:12 | -36.69368 | -59.19798 | 36001 ft | 409 kts | 223° |
| 2026-04-25 18:13 | -36.74191 | -59.23606 | 36000 ft | 411 kts | 222° |
| 2026-04-25 18:13 | -36.78998 | -59.27406 | 35999 ft | 412 kts | 222° |
| 2026-04-25 18:14 | -36.86274 | -59.33168 | 35992 ft | 413 kts | 222° |
| 2026-04-25 18:14 | -36.91127 | -59.37019 | 35995 ft | 413 kts | 222° |
| 2026-04-25 18:15 | -36.95936 | -59.40841 | 35996 ft | 412 kts | 222° |
| 2026-04-25 18:15 | -37.00769 | -59.44689 | 35997 ft | 411 kts | 222° |
| 2026-04-25 18:16 | -37.05590 | -59.48534 | 35994 ft | 410 kts | 222° |
| 2026-04-25 18:17 | -37.12803 | -59.54297 | 35992 ft | 410 kts | 221° |
| 2026-04-25 18:17 | -37.17570 | -59.58112 | 35999 ft | 409 kts | 221° |
| 2026-04-25 18:18 | -37.22314 | -59.62048 | 35992 ft | 409 kts | 223° |
| 2026-04-25 18:18 | -37.27016 | -59.66054 | 35990 ft | 409 kts | 223° |
| 2026-04-25 18:19 | -37.31727 | -59.70068 | 35996 ft | 409 kts | 223° |
| 2026-04-25 18:19 | -37.36418 | -59.74056 | 35994 ft | 410 kts | 222° |
| 2026-04-25 18:20 | -37.41144 | -59.78073 | 35989 ft | 410 kts | 222° |
| 2026-04-25 18:20 | -37.45876 | -59.82101 | 35992 ft | 411 kts | 222° |
| 2026-04-25 18:21 | -37.50613 | -59.86138 | 35988 ft | 411 kts | 222° |
| 2026-04-25 18:21 | -37.55352 | -59.90184 | 35988 ft | 412 kts | 222° |
| 2026-04-25 18:22 | -37.60093 | -59.94239 | 35989 ft | 412 kts | 222° |
| 2026-04-25 18:22 | -37.64806 | -59.98275 | 35987 ft | 412 kts | 221° |
| 2026-04-25 18:23 | -37.69551 | -60.02345 | 35986 ft | 413 kts | 221° |
| 2026-04-25 18:23 | -37.74298 | -60.06423 | 35984 ft | 413 kts | 221° |
| 2026-04-25 18:24 | -37.79050 | -60.10512 | 35987 ft | 413 kts | 221° |
| 2026-04-25 18:24 | -37.83767 | -60.14578 | 35984 ft | 413 kts | 221° |
| 2026-04-25 18:25 | -37.88517 | -60.18678 | 35982 ft | 413 kts | 221° |
| 2026-04-25 18:25 | -37.93264 | -60.22783 | 35979 ft | 413 kts | 221° |
| 2026-04-25 18:26 | -37.98011 | -60.26894 | 35978 ft | 413 kts | 221° |
| 2026-04-25 18:26 | -38.02756 | -60.31010 | 35977 ft | 413 kts | 221° |
| 2026-04-25 18:27 | -38.07467 | -60.35103 | 35978 ft | 413 kts | 221° |
| 2026-04-25 18:27 | -38.12209 | -60.39229 | 35976 ft | 413 kts | 221° |
| 2026-04-25 18:28 | -38.16950 | -60.43349 | 35970 ft | 413 kts | 220° |
| 2026-04-25 18:28 | -38.21737 | -60.47410 | 35973 ft | 414 kts | 220° |
| 2026-04-25 18:29 | -38.28903 | -60.53463 | 35966 ft | 414 kts | 220° |
| 2026-04-25 18:30 | -38.38474 | -60.61599 | 35966 ft | 413 kts | 220° |
| 2026-04-25 18:30 | -38.43255 | -60.65676 | 35962 ft | 413 kts | 220° |
| 2026-04-25 18:31 | -38.48027 | -60.69754 | 35968 ft | 413 kts | 220° |
| 2026-04-25 18:31 | -38.52761 | -60.73805 | 35966 ft | 412 kts | 220° |
| 2026-04-25 18:32 | -38.57526 | -60.77889 | 35965 ft | 412 kts | 220° |
| 2026-04-25 18:32 | -38.62287 | -60.81977 | 35965 ft | 412 kts | 220° |
| 2026-04-25 18:33 | -38.67042 | -60.86066 | 35962 ft | 412 kts | 220° |
| 2026-04-25 18:33 | -38.71794 | -60.90159 | 35962 ft | 411 kts | 220° |
| 2026-04-25 18:34 | -38.76510 | -60.94228 | 35962 ft | 411 kts | 220° |
| 2026-04-25 18:34 | -38.81252 | -60.98325 | 35954 ft | 411 kts | 220° |
| 2026-04-25 18:35 | -38.85994 | -61.02430 | 35956 ft | 411 kts | 220° |
| 2026-04-25 18:35 | -38.90735 | -61.06541 | 35954 ft | 411 kts | 220° |
| 2026-04-25 18:36 | -38.95475 | -61.10657 | 35958 ft | 411 kts | 220° |
| 2026-04-25 18:36 | -39.00182 | -61.14751 | 35956 ft | 411 kts | 220° |
| 2026-04-25 18:37 | -39.04924 | -61.18882 | 35950 ft | 412 kts | 220° |
| 2026-04-25 18:37 | -39.09662 | -61.23017 | 35953 ft | 412 kts | 220° |
| 2026-04-25 18:38 | -39.14404 | -61.27163 | 35948 ft | 412 kts | 220° |
| 2026-04-25 18:38 | -39.19146 | -61.31315 | 35947 ft | 412 kts | 220° |
| 2026-04-25 18:39 | -39.23856 | -61.35445 | 35945 ft | 412 kts | 220° |
| 2026-04-25 18:39 | -39.28597 | -61.39610 | 35947 ft | 412 kts | 220° |
| 2026-04-25 18:40 | -39.33337 | -61.43781 | 35945 ft | 412 kts | 220° |
| 2026-04-25 18:40 | -39.38079 | -61.47960 | 35952 ft | 412 kts | 220° |
| 2026-04-25 18:41 | -39.42814 | -61.52141 | 35947 ft | 412 kts | 220° |
| 2026-04-25 18:41 | -39.47550 | -61.56330 | 35947 ft | 412 kts | 220° |
| 2026-04-25 18:42 | -39.50683 | -61.59104 | 35948 ft | 412 kts | 220° |
| 2026-04-25 18:42 | -39.56974 | -61.64685 | 35946 ft | 412 kts | 220° |
| 2026-04-25 18:43 | -39.61700 | -61.68886 | 35948 ft | 412 kts | 220° |
| 2026-04-25 18:43 | -39.66417 | -61.73087 | 35950 ft | 411 kts | 220° |
| 2026-04-25 18:44 | -39.71135 | -61.77294 | 35948 ft | 411 kts | 220° |
| 2026-04-25 18:44 | -39.75818 | -61.81478 | 35952 ft | 411 kts | 220° |
| 2026-04-25 18:45 | -39.80528 | -61.85693 | 35951 ft | 411 kts | 220° |
| 2026-04-25 18:45 | -39.85236 | -61.89914 | 35953 ft | 411 kts | 220° |
| 2026-04-25 18:46 | -39.89801 | -61.94347 | 35962 ft | 408 kts | 224° |
| 2026-04-25 18:46 | -39.94165 | -61.99055 | 35953 ft | 407 kts | 225° |
| 2026-04-25 18:47 | -39.98490 | -62.03756 | 35953 ft | 407 kts | 225° |
| 2026-04-25 18:47 | -40.02854 | -62.08471 | 35955 ft | 408 kts | 224° |
| 2026-04-25 18:48 | -40.07233 | -62.13187 | 35952 ft | 408 kts | 224° |
| 2026-04-25 18:48 | -40.11609 | -62.17902 | 35954 ft | 408 kts | 224° |
| 2026-04-25 18:49 | -40.15988 | -62.22627 | 35952 ft | 408 kts | 224° |
| 2026-04-25 18:49 | -40.20334 | -62.27324 | 35954 ft | 408 kts | 224° |
| 2026-04-25 18:50 | -40.24706 | -62.32058 | 35951 ft | 408 kts | 224° |
| 2026-04-25 18:50 | -40.29071 | -62.36794 | 35954 ft | 408 kts | 225° |
| 2026-04-25 18:51 | -40.31961 | -62.39933 | 35949 ft | 407 kts | 225° |
| 2026-04-25 18:51 | -40.37761 | -62.46245 | 35951 ft | 407 kts | 225° |
| 2026-04-25 18:52 | -40.42113 | -62.50991 | 35942 ft | 407 kts | 225° |
| 2026-04-25 18:52 | -40.46461 | -62.55741 | 35944 ft | 406 kts | 225° |
| 2026-04-25 18:53 | -40.50799 | -62.60488 | 35941 ft | 406 kts | 225° |
| 2026-04-25 18:53 | -40.55107 | -62.65210 | 35938 ft | 406 kts | 225° |
| 2026-04-25 18:54 | -40.61605 | -62.72349 | 35940 ft | 406 kts | 225° |
| 2026-04-25 18:55 | -40.65933 | -62.77114 | 35944 ft | 405 kts | 225° |
| 2026-04-25 18:55 | -40.70258 | -62.81884 | 35950 ft | 405 kts | 225° |
| 2026-04-25 18:56 | -40.74543 | -62.86619 | 35960 ft | 405 kts | 225° |
| 2026-04-25 18:56 | -40.78860 | -62.91398 | 35971 ft | 405 kts | 225° |
| 2026-04-25 18:57 | -40.83178 | -62.96186 | 35981 ft | 406 kts | 225° |
| 2026-04-25 18:57 | -40.87543 | -63.00939 | 35958 ft | 409 kts | 221° |
| 2026-04-25 18:58 | -40.92165 | -63.05239 | 35965 ft | 409 kts | 220° |
| 2026-04-25 18:58 | -40.99200 | -63.11631 | 35956 ft | 408 kts | 220° |
| 2026-04-25 18:59 | -41.08486 | -63.20184 | 35944 ft | 407 kts | 220° |
| 2026-04-25 19:00 | -41.15448 | -63.26640 | 35919 ft | 407 kts | 220° |
| 2026-04-25 19:01 | -41.22399 | -63.33103 | 35922 ft | 406 kts | 220° |
| 2026-04-25 19:01 | -41.26995 | -63.37386 | 35922 ft | 406 kts | 220° |
| 2026-04-25 19:02 | -41.33929 | -63.43862 | 35926 ft | 406 kts | 220° |
| 2026-04-25 19:03 | -41.39331 | -63.48919 | 35924 ft | 406 kts | 220° |
| 2026-04-25 19:03 | -41.45483 | -63.54691 | 35921 ft | 406 kts | 220° |
| 2026-04-25 19:04 | -41.52381 | -63.61178 | 35918 ft | 407 kts | 220° |
| 2026-04-25 19:05 | -41.61627 | -63.69902 | 35916 ft | 407 kts | 221° |
| 2026-04-25 19:06 | -41.66253 | -63.74278 | 35911 ft | 407 kts | 220° |
| 2026-04-25 19:06 | -41.73162 | -63.80828 | 35911 ft | 408 kts | 220° |
| 2026-04-25 19:07 | -41.80103 | -63.87427 | 35908 ft | 408 kts | 221° |
| 2026-04-25 19:08 | -41.87050 | -63.94049 | 35900 ft | 409 kts | 221° |
| 2026-04-25 19:09 | -41.94751 | -64.01411 | 35897 ft | 409 kts | 221° |
| 2026-04-25 19:10 | -42.03235 | -64.09548 | 35888 ft | 410 kts | 221° |
| 2026-04-25 19:10 | -42.07875 | -64.14009 | 35881 ft | 410 kts | 220° |
| 2026-04-25 19:11 | -42.12513 | -64.18476 | 35887 ft | 410 kts | 220° |
| 2026-04-25 19:11 | -42.15936 | -64.21780 | 35879 ft | 410 kts | 220° |
| 2026-04-25 19:12 | -42.20578 | -64.26265 | 35876 ft | 410 kts | 220° |
| 2026-04-25 19:12 | -42.25218 | -64.30757 | 35873 ft | 411 kts | 220° |
| 2026-04-25 19:13 | -42.29831 | -64.35232 | 35869 ft | 411 kts | 220° |
| 2026-04-25 19:13 | -42.34473 | -64.39742 | 35865 ft | 411 kts | 220° |
| 2026-04-25 19:14 | -42.39117 | -64.44264 | 35857 ft | 411 kts | 220° |
| 2026-04-25 19:14 | -42.43760 | -64.48793 | 35856 ft | 412 kts | 220° |
| 2026-04-25 19:15 | -42.48407 | -64.53334 | 35851 ft | 412 kts | 220° |
| 2026-04-25 19:15 | -42.53025 | -64.57855 | 35847 ft | 412 kts | 220° |
| 2026-04-25 19:16 | -42.57676 | -64.62417 | 35841 ft | 413 kts | 220° |
| 2026-04-25 19:16 | -42.62330 | -64.66991 | 35838 ft | 413 kts | 220° |
| 2026-04-25 19:17 | -42.66986 | -64.71575 | 35831 ft | 413 kts | 220° |
| 2026-04-25 19:17 | -42.71610 | -64.76136 | 35830 ft | 413 kts | 220° |
| 2026-04-25 19:18 | -42.76262 | -64.80733 | 35823 ft | 413 kts | 220° |
| 2026-04-25 19:18 | -42.80911 | -64.85336 | 35821 ft | 413 kts | 220° |
| 2026-04-25 19:19 | -42.85550 | -64.89939 | 35817 ft | 412 kts | 220° |
| 2026-04-25 19:19 | -42.90181 | -64.94542 | 35811 ft | 412 kts | 220° |
| 2026-04-25 19:20 | -42.94776 | -64.99117 | 35813 ft | 411 kts | 220° |
| 2026-04-25 19:20 | -42.99388 | -65.03719 | 35814 ft | 410 kts | 220° |
| 2026-04-25 19:21 | -43.03993 | -65.08323 | 35816 ft | 410 kts | 221° |
| 2026-04-25 19:21 | -43.10881 | -65.15226 | 35823 ft | 408 kts | 221° |
| 2026-04-25 19:22 | -43.15425 | -65.19790 | 35832 ft | 408 kts | 221° |
| 2026-04-25 19:23 | -43.22399 | -65.26480 | 35833 ft | 410 kts | 215° |
| 2026-04-25 19:23 | -43.29854 | -65.32292 | 35837 ft | 411 kts | 214° |
| 2026-04-25 19:24 | -43.34794 | -65.36137 | 35825 ft | 411 kts | 214° |
| 2026-04-25 19:25 | -43.44719 | -65.43977 | 35799 ft | 412 kts | 215° |
| 2026-04-25 19:25 | -43.49685 | -65.47922 | 35777 ft | 412 kts | 215° |
| 2026-04-25 19:26 | -43.54659 | -65.51882 | 35772 ft | 413 kts | 215° |
| 2026-04-25 19:26 | -43.59635 | -65.55850 | 35770 ft | 414 kts | 215° |
| 2026-04-25 19:27 | -43.62938 | -65.58487 | 35764 ft | 414 kts | 215° |
| 2026-04-25 19:27 | -43.69584 | -65.63805 | 35764 ft | 415 kts | 215° |
| 2026-04-25 19:28 | -43.74590 | -65.67820 | 35758 ft | 416 kts | 215° |
| 2026-04-25 19:28 | -43.79597 | -65.71843 | 35755 ft | 417 kts | 215° |
| 2026-04-25 19:29 | -43.84580 | -65.75855 | 35754 ft | 417 kts | 215° |
| 2026-04-25 19:29 | -43.89596 | -65.79902 | 35746 ft | 417 kts | 215° |
| 2026-04-25 19:30 | -43.94612 | -65.83957 | 35736 ft | 417 kts | 215° |
| 2026-04-25 19:30 | -43.97131 | -65.85997 | 35377 ft | 423 kts | 215° |
| 2026-04-25 19:30 | -43.98812 | -65.87359 | 35134 ft | 421 kts | 216° |
| 2026-04-25 19:31 | -44.02199 | -65.90007 | 34543 ft | 416 kts | 214° |
| 2026-04-25 19:31 | -44.04721 | -65.91835 | 34120 ft | 413 kts | 214° |
| 2026-04-25 19:31 | -44.07266 | -65.93639 | 33669 ft | 409 kts | 214° |
| 2026-04-25 19:31 | -44.09794 | -65.95427 | 33160 ft | 406 kts | 215° |
| 2026-04-25 19:32 | -44.12295 | -65.97207 | 32700 ft | 401 kts | 215° |
| 2026-04-25 19:32 | -44.14759 | -65.98972 | 32253 ft | 396 kts | 216° |
| 2026-04-25 19:32 | -44.17189 | -66.00725 | 31842 ft | 392 kts | 216° |
| 2026-04-25 19:32 | -44.18005 | -66.01315 | 31689 ft | 390 kts | 216° |
| 2026-04-25 19:33 | -44.21175 | -66.03617 | 31141 ft | 386 kts | 216° |
| 2026-04-25 19:33 | -44.23552 | -66.05347 | 30721 ft | 383 kts | 217° |
| 2026-04-25 19:33 | -44.26662 | -66.07615 | 30197 ft | 379 kts | 217° |
| 2026-04-25 19:33 | -44.28992 | -66.09317 | 29806 ft | 377 kts | 217° |
| 2026-04-25 19:34 | -44.31313 | -66.11013 | 29337 ft | 375 kts | 217° |
| 2026-04-25 19:34 | -44.32838 | -66.12129 | 29042 ft | 373 kts | 217° |
| 2026-04-25 19:34 | -44.35902 | -66.14371 | 28495 ft | 370 kts | 217° |
| 2026-04-25 19:34 | -44.37408 | -66.15473 | 28217 ft | 368 kts | 217° |
| 2026-04-25 19:35 | -44.39667 | -66.17129 | 27805 ft | 366 kts | 217° |
| 2026-04-25 19:35 | -44.41915 | -66.18778 | 27399 ft | 363 kts | 217° |
| 2026-04-25 19:35 | -44.44145 | -66.20415 | 26991 ft | 361 kts | 217° |
| 2026-04-25 19:35 | -44.46364 | -66.22046 | 26589 ft | 359 kts | 217° |
| 2026-04-25 19:36 | -44.48573 | -66.23671 | 26191 ft | 358 kts | 217° |
| 2026-04-25 19:36 | -44.50772 | -66.25290 | 25792 ft | 356 kts | 217° |
| 2026-04-25 19:36 | -44.52927 | -66.26878 | 25402 ft | 354 kts | 217° |
| 2026-04-25 19:36 | -44.55105 | -66.28484 | 25019 ft | 353 kts | 217° |
| 2026-04-25 19:37 | -44.57273 | -66.30084 | 24625 ft | 352 kts | 217° |
| 2026-04-25 19:37 | -44.59440 | -66.31685 | 24240 ft | 351 kts | 217° |
| 2026-04-25 19:37 | -44.61598 | -66.33281 | 23847 ft | 350 kts | 217° |
| 2026-04-25 19:37 | -44.64450 | -66.35391 | 23319 ft | 350 kts | 217° |
| 2026-04-25 19:38 | -44.65903 | -66.36467 | 23024 ft | 349 kts | 217° |
| 2026-04-25 19:38 | -44.68048 | -66.38058 | 22571 ft | 348 kts | 217° |
| 2026-04-25 19:38 | -44.70187 | -66.39644 | 22155 ft | 346 kts | 217° |
| 2026-04-25 19:38 | -44.72281 | -66.41197 | 21771 ft | 344 kts | 217° |
| 2026-04-25 19:39 | -44.74391 | -66.42763 | 21370 ft | 342 kts | 216° |
| 2026-04-25 19:39 | -44.76490 | -66.44324 | 20977 ft | 340 kts | 216° |
| 2026-04-25 19:39 | -44.78577 | -66.45877 | 20591 ft | 339 kts | 216° |
| 2026-04-25 19:39 | -44.80652 | -66.47422 | 20215 ft | 337 kts | 216° |
| 2026-04-25 19:40 | -44.82720 | -66.48964 | 19832 ft | 335 kts | 216° |
| 2026-04-25 19:40 | -44.84777 | -66.50499 | 19450 ft | 333 kts | 215° |
| 2026-04-25 19:40 | -44.86778 | -66.51990 | 19074 ft | 327 kts | 215° |
| 2026-04-25 19:40 | -44.88770 | -66.53476 | 18699 ft | 321 kts | 215° |
| 2026-04-25 19:41 | -44.90723 | -66.54935 | 18335 ft | 315 kts | 215° |
| 2026-04-25 19:41 | -44.92646 | -66.56375 | 17975 ft | 310 kts | 215° |
| 2026-04-25 19:41 | -44.94536 | -66.57791 | 17576 ft | 305 kts | 215° |
| 2026-04-25 19:41 | -44.95769 | -66.58716 | 17317 ft | 302 kts | 215° |
| 2026-04-25 19:42 | -44.98229 | -66.60562 | 16839 ft | 298 kts | 214° |
| 2026-04-25 19:42 | -45.00057 | -66.61936 | 16483 ft | 298 kts | 214° |
| 2026-04-25 19:42 | -45.01884 | -66.63310 | 16135 ft | 298 kts | 214° |
| 2026-04-25 19:42 | -45.03706 | -66.64682 | 15648 ft | 303 kts | 214° |
| 2026-04-25 19:43 | -45.05564 | -66.66081 | 15273 ft | 303 kts | 214° |
| 2026-04-25 19:43 | -45.07433 | -66.67487 | 14901 ft | 304 kts | 213° |
| 2026-04-25 19:43 | -45.09301 | -66.68895 | 14531 ft | 305 kts | 213° |
| 2026-04-25 19:43 | -45.11178 | -66.70309 | 14179 ft | 306 kts | 213° |
| 2026-04-25 19:44 | -45.13063 | -66.71732 | 13811 ft | 308 kts | 213° |
| 2026-04-25 19:44 | -45.14955 | -66.73161 | 13444 ft | 309 kts | 212° |
| 2026-04-25 19:44 | -45.16851 | -66.74593 | 13035 ft | 308 kts | 212° |
| 2026-04-25 19:44 | -45.18722 | -66.76005 | 12645 ft | 302 kts | 212° |
| 2026-04-25 19:45 | -45.20535 | -66.77374 | 12289 ft | 296 kts | 212° |
| 2026-04-25 19:45 | -45.22338 | -66.78737 | 11935 ft | 291 kts | 212° |
| 2026-04-25 19:45 | -45.24109 | -66.80080 | 11597 ft | 286 kts | 212° |
| 2026-04-25 19:45 | -45.25853 | -66.81402 | 11261 ft | 282 kts | 212° |
| 2026-04-25 19:46 | -45.27571 | -66.82707 | 10922 ft | 278 kts | 212° |
| 2026-04-25 19:46 | -45.29267 | -66.83996 | 10590 ft | 276 kts | 212° |
| 2026-04-25 19:46 | -45.30952 | -66.85277 | 10253 ft | 274 kts | 212° |
| 2026-04-25 19:46 | -45.32620 | -66.86546 | 9989 ft | 269 kts | 212° |
| 2026-04-25 19:47 | -45.34242 | -66.87779 | 9857 ft | 261 kts | 213° |
| 2026-04-25 19:47 | -45.35804 | -66.88969 | 9740 ft | 256 kts | 213° |
| 2026-04-25 19:47 | -45.37362 | -66.90156 | 9554 ft | 254 kts | 213° |
| 2026-04-25 19:47 | -45.38927 | -66.91352 | 9265 ft | 256 kts | 213° |
| 2026-04-25 19:48 | -45.40503 | -66.92556 | 8962 ft | 258 kts | 213° |
| 2026-04-25 19:48 | -45.42085 | -66.93764 | 8676 ft | 259 kts | 213° |
| 2026-04-25 19:48 | -45.43681 | -66.94985 | 8365 ft | 261 kts | 213° |
| 2026-04-25 19:48 | -45.45273 | -66.96205 | 8052 ft | 258 kts | 213° |
| 2026-04-25 19:49 | -45.46844 | -66.97408 | 7765 ft | 255 kts | 212° |
| 2026-04-25 19:49 | -45.47875 | -66.98196 | 7581 ft | 253 kts | 212° |
| 2026-04-25 19:49 | -45.49910 | -66.99751 | 7197 ft | 249 kts | 212° |
| 2026-04-25 19:49 | -45.51422 | -67.00910 | 6935 ft | 245 kts | 212° |
| 2026-04-25 19:50 | -45.54392 | -67.03188 | 6388 ft | 240 kts | 212° |
| 2026-04-25 19:50 | -45.55854 | -67.04312 | 6115 ft | 238 kts | 212° |
| 2026-04-25 19:50 | -45.56816 | -67.05051 | 5920 ft | 236 kts | 212° |
| 2026-04-25 19:51 | -45.61550 | -67.08692 | 5175 ft | 222 kts | 211° |
| 2026-04-25 19:51 | -45.62870 | -67.09707 | 5068 ft | 215 kts | 211° |
| 2026-04-25 19:52 | -45.64166 | -67.10706 | 4972 ft | 209 kts | 211° |
| 2026-04-25 19:52 | -45.65434 | -67.11684 | 4904 ft | 206 kts | 211° |
| 2026-04-25 19:52 | -45.66689 | -67.12653 | 4770 ft | 206 kts | 211° |
| 2026-04-25 19:52 | -45.67954 | -67.13630 | 4562 ft | 206 kts | 210° |
| 2026-04-25 19:53 | -45.69200 | -67.14592 | 4338 ft | 200 kts | 210° |
| 2026-04-25 19:53 | -45.70401 | -67.15519 | 4077 ft | 192 kts | 210° |
| 2026-04-25 19:53 | -45.71528 | -67.16389 | 4047 ft | 176 kts | 210° |
| 2026-04-25 19:53 | -45.72562 | -67.17187 | 3975 ft | 164 kts | 210° |
| 2026-04-25 19:54 | -45.73558 | -67.17958 | 3762 ft | 162 kts | 210° |
| 2026-04-25 19:54 | -45.74362 | -67.19004 | 3528 ft | 163 kts | 240° |
| 2026-04-25 19:54 | -45.74770 | -67.20509 | 3340 ft | 162 kts | 244° |
| 2026-04-25 19:54 | -45.75015 | -67.21529 | 3196 ft | 158 kts | 246° |
| 2026-04-25 19:55 | -45.75440 | -67.23467 | 2942 ft | 152 kts | 247° |
| 2026-04-25 19:55 | -45.75699 | -67.24931 | 2753 ft | 151 kts | 250° |
| 2026-04-25 19:55 | -45.75905 | -67.26355 | 2585 ft | 151 kts | 250° |
| 2026-04-25 19:55 | -45.76103 | -67.27834 | 2425 ft | 151 kts | 251° |
| 2026-04-25 19:56 | -45.76294 | -67.29312 | 2220 ft | 150 kts | 251° |
| 2026-04-25 19:56 | -45.76481 | -67.30756 | 2072 ft | 149 kts | 251° |
| 2026-04-25 19:56 | -45.76663 | -67.32178 | 2002 ft | 143 kts | 252° |
| 2026-04-25 19:56 | -45.76847 | -67.33603 | 1803 ft | 143 kts | 251° |
| 2026-04-25 19:57 | -45.77027 | -67.34997 | 1603 ft | 143 kts | 251° |
| 2026-04-25 19:57 | -45.77210 | -67.36404 | 1413 ft | 143 kts | 252° |
| 2026-04-25 19:57 | -45.77388 | -67.37793 | 1205 ft | 141 kts | 254° |
| 2026-04-25 19:57 | -45.77568 | -67.39157 | 997 ft | 136 kts | 257° |
| 2026-04-25 19:58 | -45.77743 | -67.40479 | 827 ft | 135 kts | 260° |
| 2026-04-25 19:58 | -45.77912 | -67.41746 | 639 ft | 128 kts | 263° |
| 2026-04-25 19:58 | -45.78058 | -67.42991 | 470 ft | 127 kts | 263° |
| 2026-04-25 19:58 | -45.78219 | -67.44231 | 312 ft | 126 kts | 262° |
| 2026-04-25 19:59 | -45.78380 | -67.45455 | 211 ft | 119 kts | 263° |
| 2026-04-25 19:59 | -45.78512 | -67.46484 | 200 ft | 86 kts | 259° |
| 2026-04-25 19:59 | -45.78594 | -67.47105 | 198 ft | 33 kts | 258° |
| 2026-04-25 19:59 | -45.78626 | -67.47300 | 206 ft | 11 kts | 237° |
| 2026-04-25 20:00 | -45.78692 | -67.47306 | 193 ft | 10 kts | 161° |
| 2026-04-25 20:00 | -45.78737 | -67.47284 | 205 ft | 10 kts | 160° |
| 2026-04-25 20:00 | -45.78791 | -67.47255 | 198 ft | 4 kts | 158° |
| 2026-04-25 20:00 | -45.78807 | -67.47226 | 201 ft | 4 kts | 109° |
| 2026-04-25 20:01 | -45.78785 | -67.47019 | 195 ft | 14 kts | 79° |
| 2026-04-25 20:01 | -45.78773 | -67.46930 | 202 ft | 8 kts | 79° |
| 2026-04-25 20:01 | -45.78764 | -67.46856 | 200 ft | 7 kts | 79° |
| 2026-04-25 20:02 | -45.78788 | -67.46804 | 199 ft | 7 kts | 169° |
| 2026-04-25 20:02 | -45.78836 | -67.46799 | 202 ft | 7 kts | 178° |
| 2026-04-25 20:02 | -45.78884 | -67.46798 | 199 ft | 7 kts | 178° |
| 2026-04-25 20:02 | -45.78920 | -67.46797 | 198 ft | 4 kts | 179° |
| 2026-04-25 20:03 | -45.78944 | -67.46814 | 208 ft | 2 kts | 221° |
| 2026-04-25 20:03 | -45.78948 | -67.46820 | 207 ft | 0 kts | 221° |